createdAt,value
2022-10-12T00:04:08.385Z,10.80
2022-10-12T00:09:12.047Z,10.80
2022-10-12T00:14:15.771Z,10.70
2022-10-12T00:19:20.883Z,10.70
2022-10-12T00:24:24.688Z,10.70
2022-10-12T00:29:28.692Z,10.70
2022-10-12T00:34:33.808Z,10.70
2022-10-12T00:39:37.873Z,10.60
2022-10-12T00:44:44.184Z,10.60
2022-10-12T00:49:53.771Z,10.60
2022-10-12T00:54:57.792Z,10.60
2022-10-12T01:00:04.761Z,10.60
2022-10-12T01:05:11.746Z,10.60
2022-10-12T01:10:15.608Z,10.60
2022-10-12T01:15:19.641Z,10.60
2022-10-12T01:20:50.914Z,10.60
2022-10-12T01:26:17.824Z,10.60
2022-10-12T01:31:31.462Z,10.50
2022-10-12T01:36:41.561Z,10.50
2022-10-12T01:41:49.371Z,10.40
2022-10-12T01:46:56.436Z,10.40
2022-10-12T01:52:11.635Z,10.40
2022-10-12T01:57:20.249Z,10.40
2022-10-12T02:02:32.573Z,10.40
2022-10-12T02:07:42.540Z,10.30
2022-10-12T02:12:47.784Z,10.30
2022-10-12T02:17:54.326Z,10.30
2022-10-12T02:22:58.208Z,10.30
2022-10-12T02:28:07.024Z,10.20
2022-10-12T02:33:17.799Z,10.20
2022-10-12T02:38:29.315Z,10.20
2022-10-12T02:43:37.795Z,10.10
2022-10-12T02:48:44.700Z,10.10
2022-10-12T02:53:48.943Z,10.10
2022-10-12T02:58:52.741Z,10.00
2022-10-12T03:03:57.780Z,10.00
2022-10-12T03:09:01.727Z,10.00
2022-10-12T03:14:06.121Z,9.90
2022-10-12T03:19:11.417Z,9.90
2022-10-12T03:24:15.029Z,9.90
2022-10-12T03:29:18.718Z,9.90
2022-10-12T03:34:23.831Z,9.90
2022-10-12T03:39:27.456Z,9.80
2022-10-12T03:44:31.080Z,9.80
2022-10-12T03:49:36.132Z,9.80
2022-10-12T03:54:39.724Z,9.80
2022-10-12T03:59:43.345Z,9.80
2022-10-12T04:04:48.399Z,9.80
2022-10-12T04:09:52.098Z,9.80
2022-10-12T04:14:55.769Z,9.70
2022-10-12T04:20:00.784Z,9.70
2022-10-12T04:25:05.039Z,9.70
2022-10-12T04:30:09.986Z,9.70
2022-10-12T04:35:15.032Z,9.70
2022-10-12T04:40:18.812Z,9.70
2022-10-12T04:45:22.523Z,9.70
2022-10-12T04:50:30.190Z,9.60
2022-10-12T04:55:34.111Z,9.60
2022-10-12T05:00:37.815Z,9.60
2022-10-12T05:05:45.238Z,9.60
2022-10-12T05:10:48.823Z,9.60
2022-10-12T05:15:52.458Z,9.50
2022-10-12T05:20:57.446Z,9.50
2022-10-12T05:26:01.138Z,9.50
2022-10-12T05:31:04.815Z,9.50
2022-10-12T05:36:10.674Z,9.50
2022-10-12T05:41:14.379Z,9.50
2022-10-12T05:46:18.021Z,9.50
2022-10-12T05:51:27.927Z,9.50
2022-10-12T05:56:32.632Z,9.50
2022-10-12T06:01:36.299Z,9.50
2022-10-12T06:06:41.512Z,9.50
2022-10-12T06:11:45.227Z,9.50
2022-10-12T06:16:52.328Z,9.50
2022-10-12T06:21:59.567Z,9.50
2022-10-12T06:27:03.217Z,9.50
2022-10-12T06:32:07.082Z,9.50
2022-10-12T06:37:25.382Z,9.50
2022-10-12T06:42:36.077Z,9.50
2022-10-12T06:47:42.213Z,9.50
2022-10-12T06:52:48.164Z,9.50
2022-10-12T06:57:52.047Z,9.50
2022-10-12T07:02:55.819Z,9.50
2022-10-12T07:08:01.194Z,9.50
2022-10-12T07:13:05.226Z,9.40
2022-10-12T07:18:08.970Z,9.50
2022-10-12T07:23:14.134Z,9.50
2022-10-12T07:28:18.226Z,9.40
2022-10-12T07:33:21.873Z,9.50
2022-10-12T07:38:27.222Z,9.50
2022-10-12T07:43:32.221Z,9.50
2022-10-12T07:48:36.399Z,9.50
2022-10-12T07:53:41.464Z,9.50
2022-10-12T07:58:49.943Z,9.50
2022-10-12T08:03:58.727Z,9.50
2022-10-12T08:09:06.566Z,9.60
2022-10-12T08:14:15.721Z,9.60
2022-10-12T08:19:19.782Z,9.70
2022-10-12T08:24:24.853Z,9.80
2022-10-12T08:29:28.532Z,10.00
2022-10-12T08:34:32.505Z,10.20
2022-10-12T08:39:37.539Z,10.60
2022-10-12T08:44:57.939Z,10.90
2022-10-12T08:50:03.980Z,11.30
2022-10-12T08:55:21.900Z,11.80
2022-10-12T09:00:25.703Z,12.20
2022-10-12T09:05:34.718Z,12.50
2022-10-12T09:10:48.443Z,12.90
2022-10-12T09:15:57.959Z,13.40
2022-10-12T09:21:06.280Z,13.90
2022-10-12T09:26:16.627Z,14.20
2022-10-12T09:31:33.112Z,14.80
2022-10-12T09:36:39.286Z,15.30
2022-10-12T09:41:46.397Z,15.70
2022-10-12T09:46:52.425Z,16.20
2022-10-12T09:52:00.811Z,16.60
2022-10-12T09:57:05.918Z,16.70
2022-10-12T10:02:16.442Z,16.80
2022-10-12T10:07:27.305Z,17.00
2022-10-12T10:12:32.811Z,17.30
2022-10-12T10:17:36.616Z,17.80
2022-10-12T10:22:48.809Z,18.30
2022-10-12T10:28:12.135Z,18.30
2022-10-12T10:33:19.970Z,18.20
2022-10-12T10:38:23.662Z,18.30
2022-10-12T10:43:31.330Z,18.40
2022-10-12T10:48:51.369Z,18.50
2022-10-12T10:53:55.224Z,18.60
2022-10-12T10:59:09.053Z,18.70
2022-10-12T11:04:20.037Z,18.80
2022-10-12T11:09:29.971Z,18.70
2022-10-12T11:14:41.553Z,18.40
2022-10-12T11:19:52.953Z,18.10
2022-10-12T11:25:04.431Z,18.00
2022-10-12T11:30:15.794Z,17.90
2022-10-12T11:35:26.354Z,17.80
2022-10-12T11:41:02.582Z,17.60
2022-10-12T11:46:04.341Z,17.40
2022-10-12T11:51:08.601Z,17.10
2022-10-12T11:56:17.795Z,17.10
2022-10-12T12:01:44.147Z,17.10
2022-10-12T12:06:57.312Z,17.00
2022-10-12T12:12:23.321Z,16.80
2022-10-12T12:17:32.234Z,16.60
2022-10-12T12:22:54.756Z,16.50
2022-10-12T12:28:00.634Z,16.50
2022-10-12T12:33:25.451Z,16.50
2022-10-12T12:38:33.341Z,16.50
2022-10-12T12:43:56.306Z,16.40
2022-10-12T12:49:07.413Z,16.30
2022-10-12T12:54:19.590Z,16.20
2022-10-12T12:59:49.881Z,16.20
2022-10-12T13:05:19.603Z,16.10
2022-10-12T13:10:32.936Z,16.10
2022-10-12T13:15:58.331Z,16.00
2022-10-12T13:21:06.629Z,16.00
2022-10-12T13:26:11.932Z,15.90
2022-10-12T13:31:21.109Z,15.90
2022-10-12T13:36:29.728Z,15.80
2022-10-12T13:41:34.312Z,15.70
2022-10-12T13:46:42.554Z,15.70
2022-10-12T13:51:49.478Z,15.70
2022-10-12T13:56:57.515Z,15.60
2022-10-12T14:02:03.204Z,15.60
2022-10-12T14:07:19.114Z,15.60
2022-10-12T14:12:25.579Z,15.70
2022-10-12T14:17:32.128Z,15.70
2022-10-12T14:22:40.694Z,15.60
2022-10-12T14:27:45.318Z,15.60
2022-10-12T14:32:50.793Z,15.50
2022-10-12T14:37:57.743Z,15.50
2022-10-12T14:43:04.921Z,15.60
2022-10-12T14:48:17.126Z,15.50
2022-10-12T14:53:22.522Z,15.50
2022-10-12T14:58:26.186Z,15.50
2022-10-12T15:03:29.884Z,15.40
2022-10-12T15:08:35.006Z,15.40
2022-10-12T15:13:38.927Z,15.40
2022-10-12T15:18:42.631Z,15.40
2022-10-12T15:23:48.195Z,15.30
2022-10-12T15:28:51.887Z,15.30
2022-10-12T15:33:55.598Z,15.30
2022-10-12T15:39:00.674Z,15.30
2022-10-12T15:44:04.474Z,15.30
2022-10-12T15:49:08.347Z,15.30
2022-10-12T15:54:13.490Z,15.30
2022-10-12T15:59:17.107Z,15.30
2022-10-12T16:04:21.262Z,15.20
2022-10-12T16:09:28.287Z,15.20
2022-10-12T16:14:33.396Z,15.20
2022-10-12T16:19:37.654Z,15.20
2022-10-12T16:24:42.700Z,15.20
2022-10-12T16:29:46.394Z,15.10
2022-10-12T16:34:50.187Z,15.10
2022-10-12T16:39:55.685Z,15.10
2022-10-12T16:44:59.375Z,15.00
2022-10-12T16:50:03.187Z,15.00
2022-10-12T16:55:09.468Z,14.90
2022-10-12T17:00:17.110Z,14.80
2022-10-12T17:05:21.705Z,14.80
2022-10-12T17:10:26.723Z,14.70
2022-10-12T17:15:30.392Z,14.70
2022-10-12T17:20:34.023Z,14.70
2022-10-12T17:25:39.151Z,14.60
2022-10-12T17:30:42.808Z,14.60
2022-10-12T17:35:46.610Z,14.50
2022-10-12T17:40:52.033Z,14.40
2022-10-12T17:45:55.654Z,14.30
2022-10-12T17:51:03.201Z,14.20
2022-10-12T17:56:12.696Z,14.20
2022-10-12T18:01:17.464Z,14.10
2022-10-12T18:06:21.919Z,14.10
2022-10-12T18:11:27.507Z,14.00
2022-10-12T18:16:32.930Z,13.90
2022-10-12T18:21:37.279Z,13.90
2022-10-12T18:26:43.490Z,13.80
2022-10-12T18:31:47.390Z,13.70
2022-10-12T18:36:52.694Z,13.70
2022-10-12T18:41:57.900Z,13.60
2022-10-12T18:47:01.634Z,13.50
2022-10-12T18:52:05.395Z,13.50
2022-10-12T18:57:10.546Z,13.40
2022-10-12T19:02:17.342Z,13.40
2022-10-12T19:07:21.308Z,13.40
2022-10-12T19:12:26.432Z,13.30
2022-10-12T19:17:32.100Z,13.30
2022-10-12T19:22:35.801Z,13.30
2022-10-12T19:27:41.043Z,13.20
2022-10-12T19:32:46.859Z,13.20
2022-10-12T19:37:50.486Z,13.20
2022-10-12T19:42:55.485Z,13.10
2022-10-12T19:48:01.724Z,13.10
2022-10-12T19:53:05.568Z,13.00
2022-10-12T19:58:10.683Z,13.00
2022-10-12T20:03:14.565Z,13.00
2022-10-12T20:08:19.854Z,12.90
2022-10-12T20:13:24.991Z,12.90
2022-10-12T20:18:31.801Z,12.90
2022-10-12T20:23:36.428Z,12.90
2022-10-12T20:28:44.849Z,12.90
2022-10-12T20:33:51.000Z,12.90
2022-10-12T20:38:55.375Z,12.90
2022-10-12T20:44:01.970Z,12.80
2022-10-12T20:49:05.952Z,12.80
2022-10-12T20:54:14.766Z,12.80
2022-10-12T20:59:20.167Z,12.70
2022-10-12T21:04:25.386Z,12.70
2022-10-12T21:09:29.415Z,12.70
2022-10-12T21:14:34.585Z,12.70
2022-10-12T21:19:38.311Z,12.70
2022-10-12T21:24:42.245Z,12.70
2022-10-12T21:29:47.310Z,12.60
2022-10-12T21:34:51.189Z,12.60
2022-10-12T21:39:54.920Z,12.60
2022-10-12T21:45:00.084Z,12.50
2022-10-12T21:50:08.102Z,12.50
2022-10-12T21:55:11.788Z,12.50
2022-10-12T22:00:17.485Z,12.50
2022-10-12T22:05:23.090Z,12.50
2022-10-12T22:10:29.766Z,12.60
2022-10-12T22:15:35.951Z,12.60
2022-10-12T22:20:48.240Z,12.60
2022-10-12T22:25:51.940Z,12.60
2022-10-12T22:30:57.121Z,12.70
2022-10-12T22:36:01.969Z,12.70
2022-10-12T22:41:07.917Z,12.70
2022-10-12T22:46:21.993Z,12.70
2022-10-12T22:51:32.164Z,12.70
2022-10-12T22:56:36.229Z,12.80
2022-10-12T23:01:41.363Z,12.80
2022-10-12T23:06:45.110Z,12.80
2022-10-12T23:11:51.266Z,12.80
2022-10-12T23:16:56.296Z,12.90
2022-10-12T23:22:00.952Z,12.90
2022-10-12T23:27:04.581Z,12.90
2022-10-12T23:32:09.744Z,12.90
2022-10-12T23:37:13.652Z,13.00
2022-10-12T23:42:17.823Z,13.00
2022-10-12T23:47:23.078Z,13.00
2022-10-12T23:52:26.790Z,13.00
2022-10-12T23:57:46.297Z,13.00
